Terminal Aerodrome Forecast
Issued by NWS

Home | Current Version | Previous Version | Text Only | Print | Product List | Glossary Off
Versions: 1 2 3 4 5 6 7 8 9 10 11 12 13 14 15 16 17 18 19 20 21 22 23 24 25 26 27 28 29

000
FTUS43 KICT 232214 AAD
TAFRSL
TAF AMD
KRSL 232214Z 2322/2418 09011KT P6SM SCT005 OVC010
     FM240200 14010KT 3SM BR OVC003
     FM241500 16010KT 4SM BR OVC015=

USA.gov is the U.S. government's official web portal to all federal, state and local government web resources and services.